Time;durP1;ratioP1;P1;durP2;ratioP2;P2;SDS_P1;SDS_P2;PMS_P1;PMS_P2;Temp;Humidity;BMP_temperature;BMP_pressure;BME280_temperature;BME280_humidity;BME280_pressure;Samples;Min_cycle;Max_cycle;Signal;HPM_P1;HPM_P2
2020/12/05 00:00:49;;;;;;;10.80;7.56;;;1.10;99.90;;;6.41;78.63;99112.49;1691327;75;24457;-81
2020/12/05 00:03:06;;;;;;;12.02;7.52;;;1.10;99.90;;;6.40;78.78;99112.50;1700180;75;24972;-78
2020/12/05 00:05:27;;;;;;;9.26;7.15;;;1.10;99.90;;;6.42;78.78;99110.33;1699211;75;24566;-81
2020/12/05 00:07:46;;;;;;;10.31;6.69;;;1.10;99.90;;;6.33;78.77;99115.52;1694369;74;24476;-79
2020/12/05 00:10:03;;;;;;;12.42;8.98;;;1.10;99.90;;;6.29;78.93;99116.39;1693385;75;25041;-81
2020/12/05 00:12:20;;;;;;;13.25;8.53;;;1.10;99.90;;;6.31;79.73;99122.85;1704131;75;24440;-80
2020/12/05 00:14:37;;;;;;;11.53;7.82;;;1.10;99.90;;;6.36;79.59;99122.39;1699194;75;24508;-81
2020/12/05 00:16:55;;;;;;;10.49;8.49;;;1.10;99.90;;;6.37;79.18;99128.85;1680960;75;24930;-80
2020/12/05 00:19:11;;;;;;;11.01;6.97;;;1.10;99.90;;;6.38;78.97;99137.05;1696529;74;24592;-81
2020/12/05 00:21:28;;;;;;;11.39;9.00;;;1.20;99.90;;;6.57;79.39;99148.23;1692587;75;24441;-80
2020/12/05 00:23:44;;;;;;;14.12;9.32;;;1.20;99.90;;;6.69;78.68;99153.39;1696636;73;24556;-78
2020/12/05 00:26:02;;;;;;;10.99;7.67;;;1.30;99.90;;;6.77;78.53;99148.64;1689652;75;24463;-80
2020/12/05 00:28:18;;;;;;;11.26;7.88;;;1.30;99.90;;;6.78;78.34;99141.76;1694890;75;25026;-80
2020/12/05 00:30:48;;;;;;;10.69;7.92;;;1.40;99.90;;;6.90;79.05;99137.84;1697319;75;24453;-78
2020/12/05 00:33:08;;;;;;;10.41;7.22;;;1.30;99.90;;;6.75;78.69;99149.08;1697379;75;24922;-79
2020/12/05 00:35:24;;;;;;;10.78;7.19;;;1.30;99.90;;;6.62;78.44;99165.91;1699271;75;24461;-80
2020/12/05 00:37:42;;;;;;;11.39;7.40;;;1.30;99.90;;;6.79;78.89;99179.27;1693489;75;24492;-80
2020/12/05 00:40:00;;;;;;;9.14;7.30;;;1.30;99.90;;;6.87;79.50;99183.13;1699824;75;25490;-80
2020/12/05 00:42:17;;;;;;;8.94;6.98;;;1.40;99.90;;;6.93;79.69;99174.92;1698650;75;24445;-79
2020/12/05 00:44:35;;;;;;;8.92;6.43;;;1.40;99.90;;;6.85;79.56;99187.43;1692681;75;24426;-80
2020/12/05 00:46:51;;;;;;;7.70;6.08;;;1.40;99.90;;;6.78;79.24;99196.91;1694786;75;24410;-80
2020/12/05 00:49:10;;;;;;;8.80;6.50;;;1.40;99.90;;;6.72;78.74;99206.44;1697099;75;24504;-80
2020/12/05 00:51:28;;;;;;;7.67;5.70;;;1.40;99.90;;;6.81;80.26;99196.07;1696283;75;24493;-80
2020/12/05 00:53:45;;;;;;;8.38;6.16;;;1.40;99.90;;;6.73;79.71;99190.91;1688142;75;24930;-81
2020/12/05 00:56:06;;;;;;;8.41;6.12;;;1.40;99.90;;;6.56;79.68;99187.45;1685612;75;24954;-79
2020/12/05 00:58:23;;;;;;;6.89;5.82;;;1.30;99.90;;;6.41;79.56;99187.46;1682101;75;24850;-79
2020/12/05 01:00:44;;;;;;;7.60;5.73;;;1.30;99.90;;;6.26;79.44;99177.55;1683946;75;24529;-79
2020/12/05 01:03:00;;;;;;;7.32;5.64;;;1.20;99.90;;;6.32;80.29;99170.66;1687985;75;24454;-80
2020/12/05 01:05:17;;;;;;;8.55;5.84;;;1.10;99.90;;;6.34;80.74;99168.91;1688368;75;24486;-79
2020/12/05 01:07:36;;;;;;;9.86;6.70;;;1.00;99.90;;;6.27;80.78;99176.67;1682444;75;24557;-79
2020/12/05 01:09:52;;;;;;;8.50;5.65;;;1.00;99.90;;;6.33;81.67;99177.55;1682577;75;24434;-79
2020/12/05 01:12:09;;;;;;;8.41;5.52;;;0.90;99.90;;;6.33;81.04;99181.42;1682619;74;24437;-81
2020/12/05 01:14:26;;;;;;;8.01;5.28;;;0.90;99.90;;;6.05;80.42;99179.67;1680315;75;25112;-80
2020/12/05 01:16:42;;;;;;;10.95;6.29;;;0.80;99.90;;;6.03;81.08;99180.09;1691547;75;24983;-79
2020/12/05 01:18:57;;;;;;;8.16;5.24;;;0.80;99.90;;;6.05;81.24;99180.52;1684266;74;24438;-82
2020/12/05 01:21:17;;;;;;;7.47;5.54;;;0.70;99.90;;;6.03;81.42;99186.13;1683641;75;24477;-80
2020/12/05 01:23:36;;;;;;;7.59;5.99;;;0.70;99.90;;;5.90;80.62;99184.38;1681410;75;24524;-82
2020/12/05 01:25:55;;;;;;;8.38;5.95;;;0.70;99.90;;;5.95;81.11;99176.21;1682887;75;24498;-81
2020/12/05 01:28:11;;;;;;;7.90;6.45;;;0.60;99.90;;;5.89;81.24;99174.04;1684060;75;24914;-80
2020/12/05 01:30:28;;;;;;;9.64;6.92;;;0.60;99.90;;;5.91;81.51;99173.62;1683311;75;24965;-80
2020/12/05 01:32:56;;;;;;;10.28;6.92;;;0.50;99.90;;;5.85;81.23;99181.33;1688840;75;24461;-79
2020/12/05 01:35:10;;;;;;;8.10;6.20;;;0.50;99.90;;;5.79;81.33;99174.83;1681426;75;24562;-80
2020/12/05 01:37:27;;;;;;;9.19;6.94;;;0.50;99.90;;;5.70;80.79;99186.44;1686192;75;24902;-81
2020/12/05 01:39:44;;;;;;;7.08;6.05;;;0.50;99.90;;;5.60;80.39;99188.54;1682676;75;24453;-80
2020/12/05 01:42:01;;;;;;;10.14;6.73;;;0.50;99.90;;;5.60;80.19;99185.54;1683086;75;24863;-80
2020/12/05 01:44:19;;;;;;;8.70;6.79;;;0.50;99.90;;;5.71;80.96;99192.89;1681322;75;24418;-81
2020/12/05 01:46:42;;;;;;;8.85;6.95;;;0.50;99.90;;;5.83;80.81;99195.98;1688288;75;24509;-79
2020/12/05 01:49:00;;;;;;;10.75;7.77;;;0.50;99.90;;;5.73;80.25;99196.77;1684469;75;24520;-80
2020/12/05 01:51:23;;;;;;;9.67;7.89;;;0.50;99.90;;;5.74;80.31;99202.36;1688548;75;24894;-79
2020/12/05 01:53:40;;;;;;;9.63;7.50;;;0.60;99.90;;;5.94;80.92;99204.62;1686984;75;24448;-79
2020/12/05 01:55:59;;;;;;;9.10;8.05;;;0.60;99.90;;;6.09;81.27;99213.27;1683062;75;24891;-80
2020/12/05 01:58:17;;;;;;;10.04;7.51;;;0.60;99.90;;;6.08;80.67;99215.84;1690392;75;24552;-81
2020/12/05 02:00:34;;;;;;;9.25;7.62;;;0.60;99.90;;;6.06;80.42;99213.27;1684238;75;24525;-80
2020/12/05 02:02:52;;;;;;;9.75;7.72;;;0.70;99.90;;;6.15;80.87;99208.10;1694021;74;24442;-80
2020/12/05 02:05:14;;;;;;;9.52;8.12;;;0.70;99.90;;;6.15;80.80;99209.39;1683839;75;24430;-77
2020/12/05 02:07:41;;;;;;;8.79;7.45;;;0.70;99.90;;;6.12;80.67;99208.09;1679393;75;24906;-79
2020/12/05 02:10:02;;;;;;;10.11;7.08;;;0.80;99.90;;;6.12;80.72;99211.10;1680746;75;25005;-78
2020/12/05 02:12:31;;;;;;;10.32;7.03;;;0.80;99.90;;;6.03;80.39;99205.92;1680584;74;24465;-80
2020/12/05 02:14:52;;;;;;;9.20;7.07;;;0.80;99.90;;;6.02;80.51;99210.22;1686226;75;24938;-81
2020/12/05 02:17:15;;;;;;;7.78;6.98;;;0.80;99.90;;;6.10;80.79;99216.27;1682304;75;24442;-79
2020/12/05 02:19:38;;;;;;;10.88;8.16;;;0.80;99.90;;;6.20;81.00;99213.27;1680390;75;24449;-80
2020/12/05 02:22:02;;;;;;;11.10;8.09;;;0.90;99.90;;;6.27;80.60;99218.90;1688585;75;24930;-82
2020/12/05 02:24:20;;;;;;;10.68;8.54;;;0.90;99.90;;;6.34;80.35;99221.91;1682244;74;24480;-79
2020/12/05 02:26:38;;;;;;;11.81;9.43;;;0.90;99.90;;;6.44;79.95;99222.36;1685445;75;24489;-80
2020/12/05 02:28:55;;;;;;;12.13;9.36;;;1.00;99.90;;;6.59;80.77;99220.22;1680715;75;24437;-80
2020/12/05 02:31:12;;;;;;;12.93;9.84;;;1.10;99.90;;;6.73;81.29;99222.38;1681114;75;24449;-80
2020/12/05 02:33:31;;;;;;;13.68;9.82;;;1.10;99.90;;;6.79;80.82;99222.36;1683910;75;24450;-82
2020/12/05 02:35:49;;;;;;;11.45;9.21;;;1.20;99.90;;;6.83;81.01;99222.36;1686311;75;24470;-82
2020/12/05 02:38:11;;;;;;;12.91;9.78;;;1.20;99.90;;;6.93;81.31;99217.61;1687069;75;24457;-80
2020/12/05 02:40:28;;;;;;;11.82;9.25;;;1.30;99.90;;;6.99;81.26;99207.67;1683935;74;24490;-80
2020/12/05 02:42:44;;;;;;;10.91;9.69;;;1.30;99.90;;;6.97;80.96;99207.67;1685588;75;24883;-80
2020/12/05 02:45:02;;;;;;;11.50;9.51;;;1.30;99.90;;;6.95;80.46;99203.38;1680758;75;24496;-80
2020/12/05 02:49:56;;;;;;;12.13;9.72;;;1.40;99.90;;;7.23;80.74;99189.51;1754587;72;25296;-81
2020/12/05 02:52:12;;;;;;;12.41;9.53;;;1.40;99.90;;;6.93;81.37;99197.34;1712008;74;24468;-81
2020/12/05 02:54:31;;;;;;;14.55;11.01;;;1.50;99.90;;;6.82;82.21;99192.61;1716991;73;24911;-81
2020/12/05 02:56:47;;;;;;;13.73;9.68;;;1.50;99.90;;;7.01;83.04;99187.84;1712057;73;24468;-80
2020/12/05 02:59:13;;;;;;;13.23;9.17;;;1.50;99.90;;;7.19;82.41;99191.23;1749599;72;24443;-78
2020/12/05 03:01:31;;;;;;;10.06;8.77;;;1.60;99.90;;;7.13;81.52;99188.67;1754823;72;24438;-81
2020/12/05 03:03:47;;;;;;;10.23;8.68;;;1.50;99.90;;;7.17;81.61;99187.81;1750492;72;24903;-80
2020/12/05 03:06:04;;;;;;;11.77;8.64;;;1.60;99.90;;;7.23;81.59;99189.09;1753272;72;24839;-81
2020/12/05 03:08:21;;;;;;;12.40;9.23;;;1.60;99.90;;;7.18;81.35;99192.53;1747348;72;24462;-81
2020/12/05 03:10:53;;;;;;;10.79;9.11;;;1.60;99.90;;;7.17;81.05;99194.28;1748069;72;24887;-82
2020/12/05 03:13:12;;;;;;;11.70;9.42;;;1.60;99.90;;;7.18;81.04;99197.72;1751438;72;24381;-81
2020/12/05 03:15:29;;;;;;;12.14;10.31;;;1.60;99.90;;;7.16;81.73;99205.48;1752113;72;24526;-80
2020/12/05 03:17:46;;;;;;;12.98;10.01;;;1.60;99.90;;;7.24;82.28;99201.61;1750989;72;24439;-80
2020/12/05 03:20:03;;;;;;;11.88;10.01;;;1.70;99.90;;;7.33;82.63;99197.69;1752266;72;24447;-79
2020/12/05 03:22:21;;;;;;;13.17;9.85;;;1.70;99.90;;;7.31;81.79;99197.70;1747721;72;24491;-80
2020/12/05 03:24:39;;;;;;;10.89;9.20;;;1.70;99.90;;;7.37;81.91;99205.86;1749406;72;24493;-79
2020/12/05 03:26:55;;;;;;;10.53;9.09;;;1.70;99.90;;;7.29;81.51;99200.72;1755011;72;24502;-80
2020/12/05 03:29:12;;;;;;;11.05;9.38;;;1.70;99.90;;;7.10;80.48;99206.80;1750901;72;24431;-80
2020/12/05 03:31:46;;;;;;;10.87;9.22;;;1.70;99.90;;;6.97;80.57;99210.72;1747597;72;24518;-78
2020/12/05 03:34:00;;;;;;;11.32;9.77;;;1.70;99.90;;;6.90;81.22;99224.09;1751832;72;24438;-81
2020/12/05 03:36:17;;;;;;;10.16;8.88;;;1.70;99.90;;;6.92;81.39;99222.38;1748775;72;24493;-79
2020/12/05 03:38:33;;;;;;;10.54;8.90;;;1.70;99.90;;;7.00;82.05;99224.94;1751988;72;24461;-79
2020/12/05 03:40:51;;;;;;;10.84;8.59;;;1.70;99.90;;;7.11;82.65;99230.51;1752076;72;24505;-80
2020/12/05 03:43:10;;;;;;;11.12;9.11;;;1.60;99.90;;;7.06;82.67;99227.52;1747608;72;24522;-79
2020/12/05 03:45:28;;;;;;;12.81;8.94;;;1.60;99.90;;;7.02;82.56;99227.94;1747991;72;24827;-79
2020/12/05 03:47:45;;;;;;;11.30;9.59;;;1.50;99.90;;;6.99;82.70;99233.13;1758154;72;24418;-80
2020/12/05 03:50:03;;;;;;;9.47;8.52;;;1.50;99.90;;;6.99;82.76;99230.54;1747520;72;24963;-79
2020/12/05 03:52:21;;;;;;;10.40;8.02;;;1.40;99.90;;;6.86;82.47;99231.41;1747745;72;25030;-80
2020/12/05 03:54:40;;;;;;;10.72;8.67;;;1.30;99.90;;;6.81;82.32;99233.13;1747278;72;24432;-80
2020/12/05 03:56:57;;;;;;;11.69;9.10;;;1.20;99.90;;;6.67;82.44;99233.56;1748426;72;24435;-79
2020/12/05 03:59:14;;;;;;;11.25;9.23;;;1.20;99.90;;;6.61;82.76;99229.69;1750773;72;24929;-78
2020/12/05 04:01:31;;;;;;;10.29;9.26;;;1.10;99.90;;;6.58;82.97;99230.98;1746503;73;24436;-80
2020/12/05 04:03:49;;;;;;;12.32;9.84;;;1.10;99.90;;;6.50;83.11;99233.98;1750231;72;24518;-79
2020/12/05 04:06:09;;;;;;;13.65;10.54;;;1.00;99.90;;;6.55;83.23;99237.87;1746634;72;24654;-80
2020/12/05 04:08:29;;;;;;;11.77;10.47;;;1.00;99.90;;;6.56;83.33;99239.16;1748925;72;24527;-79
2020/12/05 04:10:47;;;;;;;13.50;10.48;;;1.00;99.90;;;6.66;83.67;99242.20;1746669;72;24877;-80
2020/12/05 04:13:04;;;;;;;15.26;11.95;;;1.00;99.90;;;6.69;83.59;99246.07;1748280;72;24881;-81
2020/12/05 04:15:21;;;;;;;13.77;11.35;;;1.10;99.90;;;6.68;83.37;99248.66;1747152;72;24475;-80
2020/12/05 04:17:38;;;;;;;14.63;11.35;;;1.00;99.90;;;6.54;82.41;99245.20;1750436;72;25251;-79
2020/12/05 04:19:56;;;;;;;11.75;10.30;;;1.10;99.90;;;6.45;82.14;99251.67;1754480;72;24423;-80
2020/12/05 04:22:13;;;;;;;14.30;11.40;;;1.00;99.90;;;6.35;81.71;99253.37;1751495;72;24454;-81
2020/12/05 04:24:32;;;;;;;13.09;10.10;;;1.00;99.90;;;6.31;81.58;99258.55;1745952;73;24359;-80
2020/12/05 04:26:50;;;;;;;12.68;10.46;;;1.00;99.90;;;6.18;80.89;99254.63;1746510;73;24412;-79
2020/12/05 04:29:07;;;;;;;10.90;9.75;;;0.90;99.90;;;6.22;81.74;99257.20;1746754;72;24930;-80
2020/12/05 04:33:48;;;;;;;12.96;10.95;;;0.90;99.90;;;6.35;80.98;99256.38;1738505;72;25234;-79
2020/12/05 04:36:05;;;;;;;13.71;12.05;;;0.80;99.90;;;6.19;81.30;99259.37;1707152;74;24446;-80
2020/12/05 04:38:21;;;;;;;15.47;12.21;;;0.80;99.90;;;6.26;83.06;99262.84;1714425;74;24469;-80
2020/12/05 04:40:37;;;;;;;13.34;11.33;;;0.80;99.90;;;6.28;83.53;99264.55;1714036;74;24430;-81
2020/12/05 04:43:01;;;;;;;14.44;11.71;;;0.80;99.90;;;6.25;83.91;99267.55;1709686;74;24520;-80
2020/12/05 04:45:20;;;;;;;13.25;10.86;;;0.70;99.90;;;6.19;83.55;99269.70;1704148;74;24602;-80
2020/12/05 04:47:37;;;;;;;13.77;11.23;;;0.70;99.90;;;6.15;83.33;99271.83;1704858;74;24431;-81
2020/12/05 04:49:57;;;;;;;13.73;11.07;;;0.70;99.90;;;6.20;83.54;99277.87;1713470;74;24910;-80
2020/12/05 04:55:08;;;;;;;14.91;10.58;;;0.60;99.90;;;6.35;82.28;99284.81;1810637;69;25204;-81
2020/12/05 04:57:28;;;;;;;13.10;11.09;;;0.60;99.90;;;6.13;83.09;99284.75;1774440;70;24420;-82
2020/12/05 04:59:48;;;;;;;14.74;10.87;;;0.60;99.90;;;6.20;82.93;99284.34;1774375;71;24472;-81
2020/12/05 05:02:08;;;;;;;13.40;11.03;;;0.60;99.90;;;6.08;82.43;99283.02;1771891;71;24425;-81
2020/12/05 05:04:29;;;;;;;12.40;10.98;;;0.60;99.90;;;6.01;82.33;99282.55;1772900;71;24533;-77
2020/12/05 05:06:46;;;;;;;11.68;10.34;;;0.60;99.90;;;5.94;82.31;99284.25;1774610;71;24534;-81
2020/12/05 05:09:10;;;;;;;12.27;10.43;;;0.60;99.90;;;6.02;82.59;99283.01;1779112;70;24474;-81
2020/12/05 05:11:30;;;;;;;11.86;10.15;;;0.50;99.90;;;6.05;82.55;99277.84;1772924;71;24483;-80
2020/12/05 05:14:01;;;;;;;11.98;10.40;;;0.50;99.90;;;5.92;82.20;99281.23;1768701;71;24488;-79
2020/12/05 05:16:20;;;;;;;12.17;10.18;;;0.40;99.90;;;5.80;82.06;99288.91;1771727;71;24422;-80
2020/12/05 05:18:38;;;;;;;13.30;10.68;;;0.40;99.90;;;5.69;82.06;99288.84;1772673;71;24875;-80
2020/12/05 05:20:57;;;;;;;13.68;10.69;;;0.30;99.90;;;5.79;82.72;99280.71;1775058;71;24429;-80
2020/12/05 05:23:18;;;;;;;13.33;10.87;;;0.30;99.90;;;5.76;82.08;99285.45;1772986;70;24398;-79
2020/12/05 05:25:49;;;;;;;11.20;10.00;;;0.30;99.90;;;5.78;82.15;99282.45;1771457;71;24537;-80
2020/12/05 05:28:06;;;;;;;12.81;10.30;;;0.30;99.90;;;5.68;81.77;99287.13;1769245;71;25695;-80
2020/12/05 05:30:22;;;;;;;15.44;10.78;;;0.30;99.90;;;5.71;81.85;99291.43;1767869;71;24423;-79
2020/12/05 05:32:46;;;;;;;13.74;11.40;;;0.30;99.90;;;5.72;81.63;99290.59;1773798;71;24890;-80
2020/12/05 05:35:13;;;;;;;15.27;10.53;;;0.30;99.90;;;5.76;81.99;99296.20;1781014;71;24421;-81
2020/12/05 05:37:32;;;;;;;15.50;11.41;;;0.40;99.90;;;6.07;82.85;99290.32;1774410;71;24823;-78
2020/12/05 05:39:54;;;;;;;12.61;10.72;;;0.40;99.90;;;6.28;82.77;99290.39;1763192;71;24478;-83
2020/12/05 05:42:10;;;;;;;19.09;13.51;;;0.50;99.90;;;6.43;82.82;99299.91;1773384;71;24461;-80
2020/12/05 05:44:31;;;;;;;13.89;10.08;;;0.60;99.90;;;6.53;82.34;99297.79;1770731;71;24462;-80
2020/12/05 05:46:50;;;;;;;11.26;9.03;;;0.70;99.90;;;6.40;81.72;99297.33;1771777;71;24878;-79
2020/12/05 05:49:07;;;;;;;12.37;10.64;;;0.70;99.90;;;6.25;81.72;99303.31;1767802;71;24903;-81
2020/12/05 05:51:42;;;;;;;13.29;10.73;;;0.70;99.90;;;6.19;81.38;99305.88;1769751;71;24559;-80
2020/12/05 05:54:21;;;;;;;14.19;10.40;;;0.60;99.90;;;6.09;81.51;99309.28;1779141;71;24499;-79
2020/12/05 05:57:13;;;;;;;13.32;10.11;;;0.60;99.90;;;6.09;82.03;99314.45;1768441;71;24437;-79
2020/12/05 05:59:31;;;;;;;12.97;11.06;;;0.40;99.90;;;6.08;82.93;99314.91;1767239;71;24462;-79
2020/12/05 06:01:53;;;;;;;12.82;10.17;;;0.40;99.90;;;6.02;83.02;99321.77;1769159;71;24436;-80
2020/12/05 06:04:16;;;;;;;15.18;9.98;;;0.30;99.90;;;5.88;82.33;99327.30;1779822;71;24957;-81
2020/12/05 06:06:38;;;;;;;13.32;9.67;;;0.30;99.90;;;5.84;82.02;99338.03;1776757;71;24373;-80
2020/12/05 06:08:57;;;;;;;14.45;10.40;;;0.30;99.90;;;5.74;82.09;99332.76;1767549;71;24501;-79
2020/12/05 06:11:19;;;;;;;12.85;10.41;;;0.20;99.90;;;5.82;82.73;99335.86;1776665;71;24412;-81
2020/12/05 06:13:36;;;;;;;14.37;10.60;;;0.20;99.90;;;5.82;82.66;99338.86;1768551;72;24509;-80
2020/12/05 06:15:54;;;;;;;14.40;11.17;;;0.10;99.90;;;5.83;82.97;99332.86;1768753;71;24425;-79
2020/12/05 06:18:13;;;;;;;13.16;10.80;;;0.10;99.90;;;5.71;82.53;99335.33;1774278;71;24445;-81
2020/12/05 06:20:34;;;;;;;15.21;11.54;;;0.10;99.90;;;5.63;82.35;99337.00;1771498;71;24863;-80
2020/12/05 06:22:57;;;;;;;15.88;11.72;;;0.10;99.90;;;5.70;82.97;99345.23;1775078;71;24438;-80
2020/12/05 06:25:16;;;;;;;15.64;11.54;;;0.00;99.90;;;5.69;83.11;99344.36;1775976;71;24451;-80
2020/12/05 06:30:15;;;;;;;15.94;12.40;;;0.00;99.90;;;5.94;82.99;99345.41;1732224;72;25209;-82
2020/12/05 06:32:49;;;;;;;16.70;12.67;;;0.00;99.90;;;5.82;83.85;99346.61;1705951;74;24865;-81
2020/12/05 06:35:16;;;;;;;16.74;12.15;;;0.00;99.90;;;5.85;83.52;99346.63;1690669;75;24753;-79
2020/12/05 06:37:37;;;;;;;13.51;11.27;;;0.10;99.90;;;5.68;83.23;99349.52;1689344;75;24448;-79
2020/12/05 06:40:04;;;;;;;15.47;11.35;;;0.20;99.90;;;5.73;83.47;99361.62;1693847;75;24923;-81
2020/12/05 06:42:23;;;;;;;16.40;12.58;;;0.20;99.90;;;5.84;83.26;99362.58;1690168;75;24440;-80
2020/12/05 06:44:41;;;;;;;18.49;12.19;;;0.20;99.90;;;5.83;83.70;99373.73;1693615;75;24770;-81
2020/12/05 06:47:00;;;;;;;15.94;12.51;;;0.20;99.90;;;5.86;83.65;99373.75;1701295;74;24464;-80
2020/12/05 06:49:59;;;;;;;17.89;13.63;;;0.20;99.90;;;5.79;83.29;99381.43;1704654;75;24433;-80
2020/12/05 06:53:08;;;;;;;17.70;13.60;;;0.20;99.90;;;5.86;83.32;99384.53;1697824;75;24504;-79
2020/12/05 06:55:36;;;;;;;21.84;14.51;;;0.20;99.90;;;5.82;84.21;99377.61;1697739;75;25025;-81
2020/12/05 06:58:06;;;;;;;23.82;16.86;;;0.30;99.90;;;6.20;83.94;99381.70;1670744;76;24632;-79
2020/12/05 07:00:30;;;;;;;21.53;15.00;;;0.40;99.90;;;6.48;84.12;99386.11;1698554;75;24445;-81
2020/12/05 07:03:11;;;;;;;20.48;15.27;;;0.50;99.90;;;6.34;82.61;99400.27;1695480;75;24444;-80
2020/12/05 07:05:34;;;;;;;24.95;17.70;;;0.60;99.90;;;6.39;82.13;99414.49;1698181;75;24440;-79
2020/12/05 07:07:55;;;;;;;24.33;17.29;;;0.60;99.90;;;6.77;81.96;99412.91;1702730;75;24414;-79
2020/12/05 07:10:12;;;;;;;22.04;16.16;;;0.80;99.90;;;6.73;80.96;99406.01;1697140;75;24890;-78
2020/12/05 07:12:31;;;;;;;27.37;19.55;;;0.90;99.90;;;6.91;81.04;99405.61;1690796;75;24953;-79
2020/12/05 07:14:49;;;;;;;27.05;18.34;;;1.10;99.90;;;7.18;81.27;99404.36;1704049;75;24458;-80
2020/12/05 07:17:20;;;;;;;17.31;11.99;;;1.20;99.90;;;7.47;81.92;99416.91;1703417;75;24545;-80
2020/12/05 07:19:40;;;;;;;8.94;7.22;;;1.40;99.90;;;7.39;82.10;99413.45;1693929;75;24395;-80
2020/12/05 07:22:02;;;;;;;22.70;15.52;;;1.60;99.90;;;7.44;82.93;99424.67;1697837;75;24430;-78
2020/12/05 07:24:18;;;;;;;19.56;13.77;;;1.90;99.90;;;7.80;82.79;99432.84;1704039;75;24574;-83
2020/12/05 07:26:41;;;;;;;20.37;14.08;;;2.00;99.90;;;7.80;83.56;99437.16;1692513;75;24492;-82
2020/12/05 07:29:18;;;;;;;17.75;13.38;;;2.20;99.90;;;7.91;83.71;99443.19;1698271;74;24464;-85
2020/12/05 07:31:41;;;;;;;20.81;13.53;;;2.40;99.90;;;7.96;84.19;99451.40;1701527;74;24451;-84
2020/12/05 07:36:49;;;;;;;14.39;11.50;;;2.60;99.90;;;8.36;84.18;99457.40;1730333;72;25199;-82
2020/12/05 07:39:10;;;;;;;15.56;12.38;;;2.70;99.90;;;8.11;85.31;99460.89;1710068;74;24905;-84
2020/12/05 07:41:28;;;;;;;17.42;10.97;;;2.70;99.90;;;8.19;84.94;99463.03;1711234;74;24443;-82
2020/12/05 07:43:48;;;;;;;14.87;10.73;;;2.70;99.90;;;7.98;85.21;99473.43;1677173;75;24490;-86
2020/12/05 07:46:11;;;;;;;8.24;6.69;;;2.80;99.90;;;7.96;86.29;99484.22;1699444;75;24480;-84
2020/12/05 07:49:01;;;;;;;12.26;9.69;;;2.80;99.90;;;7.96;86.22;99476.02;1692317;75;24370;-85
2020/12/05 07:51:20;;;;;;;13.89;9.68;;;2.90;99.90;;;7.99;86.70;99485.09;1698520;75;24491;-83
2020/12/05 07:53:52;;;;;;;11.78;8.13;;;2.80;99.90;;;8.05;86.36;99501.92;1700015;75;24467;-82
2020/12/05 07:56:21;;;;;;;11.01;9.31;;;2.90;99.90;;;7.86;87.08;99509.27;1705961;75;24667;-83
2020/12/05 07:58:46;;;;;;;11.96;8.01;;;2.90;99.90;;;8.00;87.05;99515.77;1699093;75;24483;-83
2020/12/05 08:01:06;;;;;;;10.36;9.26;;;2.90;99.90;;;7.89;87.18;99517.05;1693631;74;24477;-84
2020/12/05 08:04:17;;;;;;;11.48;8.89;;;3.00;99.90;;;8.00;87.66;99518.36;1692951;75;24955;-83
2020/12/05 08:06:52;;;;;;;11.76;9.08;;;3.00;99.90;;;8.08;86.96;99524.41;1695876;75;24418;-82
2020/12/05 08:11:56;;;;;;;9.39;7.00;;;3.00;99.90;;;8.33;86.35;99528.73;1740229;72;25310;-82
2020/12/05 08:14:16;;;;;;;11.43;7.81;;;3.00;99.90;;;8.09;87.12;99537.79;1725630;73;24516;-82
2020/12/05 08:16:33;;;;;;;15.45;10.86;;;3.10;99.90;;;8.05;87.49;99534.33;1719170;73;24450;-79
2020/12/05 08:18:51;;;;;;;12.82;9.61;;;3.10;99.90;;;8.44;87.54;99525.68;1719942;73;24979;-80
2020/12/05 08:21:11;;;;;;;7.77;6.24;;;3.20;99.90;;;8.45;86.51;99533.88;1720890;73;24396;-83
2020/12/05 08:23:37;;;;;;;11.17;8.56;;;3.20;99.90;;;8.04;88.96;99530.44;1727473;73;24557;-79
2020/12/05 08:26:00;;;;;;;6.92;5.57;;;3.30;99.90;;;8.42;88.32;99539.95;1722343;73;24937;-81
2020/12/05 08:28:21;;;;;;;11.73;9.71;;;3.40;99.90;;;8.25;88.43;99541.68;1715946;73;25281;-83
2020/12/05 08:30:42;;;;;;;13.73;10.14;;;3.40;99.90;;;8.42;88.08;99548.16;1719313;73;24496;-78
2020/12/05 08:33:04;;;;;;;12.60;7.47;;;3.40;99.90;;;8.57;87.51;99541.20;1723436;73;24475;-80
2020/12/05 08:35:27;;;;;;;12.15;9.90;;;3.40;99.90;;;8.25;88.05;99549.91;1715488;73;24952;-81
2020/12/05 08:37:48;;;;;;;13.66;10.15;;;3.40;99.90;;;8.35;87.71;99543.83;1728719;73;24422;-81
2020/12/05 08:40:09;;;;;;;10.85;7.89;;;3.40;99.90;;;8.53;86.52;99549.88;1719411;73;24512;-82
2020/12/05 08:42:27;;;;;;;11.36;9.25;;;3.40;99.90;;;8.19;87.51;99562.40;1723220;73;24585;-80
2020/12/05 08:44:46;;;;;;;13.19;9.55;;;3.40;99.90;;;8.14;87.92;99555.05;1720915;73;24456;-82
2020/12/05 08:47:07;;;;;;;12.18;9.22;;;3.40;99.90;;;8.40;87.52;99570.62;1725406;73;24480;-83
2020/12/05 08:49:26;;;;;;;10.70;8.07;;;3.50;99.90;;;8.39;87.04;99566.31;1720044;73;24437;-81
2020/12/05 08:52:03;;;;;;;11.67;10.23;;;3.50;99.90;;;8.35;87.18;99569.77;1721776;73;24471;-82
2020/12/05 08:54:23;;;;;;;11.36;9.79;;;3.50;99.90;;;8.62;86.11;99573.19;1688855;75;24501;-80
2020/12/05 08:56:40;;;;;;;6.72;4.86;;;3.50;99.90;;;8.58;86.46;99574.05;1724742;73;24882;-78
2020/12/05 08:58:59;;;;;;;13.36;10.10;;;3.60;99.90;;;8.35;87.09;99577.55;1725164;73;24492;-80
2020/12/05 09:01:18;;;;;;;11.85;9.54;;;3.60;99.90;;;8.77;86.19;99576.19;1722842;73;24498;-81
2020/12/05 09:03:38;;;;;;;11.07;8.81;;;3.60;99.90;;;8.73;86.21;99577.92;1723107;73;24371;-80
2020/12/05 09:05:55;;;;;;;12.23;9.12;;;3.60;99.90;;;8.68;85.89;99578.36;1719193;73;24578;-80
2020/12/05 09:08:13;;;;;;;11.34;10.17;;;3.60;99.90;;;8.70;86.46;99578.36;1726371;73;24531;-78
2020/12/05 09:10:33;;;;;;;8.58;6.34;;;3.70;99.90;;;8.87;85.44;99585.66;1724230;73;24486;-79
2020/12/05 09:12:52;;;;;;;9.58;8.45;;;3.70;99.90;;;8.47;87.10;99592.66;1720931;73;24429;-82
2020/12/05 09:15:09;;;;;;;9.53;8.54;;;3.70;99.90;;;8.72;87.08;99597.39;1720799;73;24391;-78
2020/12/05 09:17:31;;;;;;;8.46;6.86;;;3.80;99.90;;;8.87;86.82;99610.31;1674137;75;24486;-83
2020/12/05 09:19:49;;;;;;;9.71;6.45;;;3.80;99.90;;;8.76;86.70;99613.37;1707330;74;24536;-82
2020/12/05 09:22:05;;;;;;;9.35;8.21;;;3.80;99.90;;;8.98;86.42;99618.52;1710886;74;24424;-82
2020/12/05 09:24:29;;;;;;;9.41;8.26;;;3.90;99.90;;;9.31;85.60;99615.38;1713687;74;24901;-82
2020/12/05 09:27:00;;;;;;;9.00;6.67;;;4.00;99.90;;;9.18;85.63;99615.87;1711958;74;24525;-78
2020/12/05 09:29:16;;;;;;;6.96;5.81;;;4.00;99.90;;;9.20;85.53;99626.66;1711874;74;24506;-86
2020/12/05 09:31:36;;;;;;;9.21;7.66;;;4.10;99.90;;;9.16;86.01;99637.08;1717715;74;24455;-83
2020/12/05 09:33:53;;;;;;;6.68;5.89;;;4.20;99.90;;;9.49;85.24;99636.06;1716324;74;24873;-82
2020/12/05 09:36:18;;;;;;;8.50;6.51;;;4.20;99.90;;;9.41;85.33;99632.64;1713348;74;24418;-86
2020/12/05 09:38:37;;;;;;;5.99;4.43;;;4.30;99.90;;;9.44;85.38;99630.05;1707731;74;24486;-83
2020/12/05 09:40:57;;;;;;;5.98;5.36;;;4.40;99.90;;;9.34;85.92;99627.93;1712625;74;24504;-88
2020/12/05 09:43:16;;;;;;;7.31;5.85;;;4.40;99.90;;;9.43;85.78;99625.28;1710651;74;24940;-79
2020/12/05 09:45:33;;;;;;;6.97;5.36;;;4.40;99.90;;;9.64;85.62;99626.91;1663550;77;24451;-76
2020/12/05 09:47:52;;;;;;;6.35;5.50;;;4.50;99.90;;;9.68;85.43;99639.00;1707326;74;24527;-81
2020/12/05 09:50:10;;;;;;;6.62;5.00;;;4.60;99.90;;;9.88;86.38;99643.22;1707763;74;24444;-78
2020/12/05 09:52:30;;;;;;;4.63;4.00;;;5.10;99.90;;;10.16;87.63;99630.48;1706004;74;24902;-77
2020/12/05 09:54:48;;;;;;;6.10;5.23;;;5.90;99.90;;;10.23;90.52;99633.91;1707076;74;24500;-78
2020/12/05 09:57:09;;;;;;;5.06;4.37;;;6.80;99.90;;;10.42;85.51;99636.37;1705941;74;24553;-78
2020/12/05 09:59:28;;;;;;;5.81;4.33;;;7.60;99.90;;;10.45;82.26;99630.27;1718343;74;24441;-82
2020/12/05 10:01:44;;;;;;;5.93;5.40;;;8.20;99.90;;;10.47;89.92;99626.79;1710204;74;24520;-80
2020/12/05 10:04:01;;;;;;;5.11;4.54;;;8.70;99.90;;;10.78;92.42;99642.13;1711196;74;24551;-79
2020/12/05 10:06:26;;;;;;;5.03;4.62;;;9.20;99.90;;;10.91;90.87;99635.94;1714866;74;24874;-80
2020/12/05 10:08:42;;;;;;;5.26;4.57;;;9.50;99.90;;;10.81;90.91;99642.09;1706687;74;24932;-79
2020/12/05 10:11:01;;;;;;;5.93;4.58;;;9.90;99.90;;;10.91;85.37;99638.08;1710651;74;24883;-80
2020/12/05 10:13:17;;;;;;;5.23;4.83;;;10.00;99.90;;;11.06;89.07;99637.06;1706349;74;24457;-82